Negombo, Sri Lanka
Current Conditions -  °F | °C
As of 12:10 AM on Saturday 25 Oct 2014 (Local Time) from VCBI Reporting Station
Broken Clouds Broken Clouds  
Wind Chill: 79°   Ceiling: 10000
Heat Index: 82°   Visibility: 6mi
Dew Point: 75°   Wind: 3mph
Humidity: 89%   Direction: 60°ENE
Pressure: 29.85"   Gusts: NA
Location:  7.22°N, 79.83°E
Report Text: VCBI 241810Z 06003KT 9999 FEW016 BKN100 26/24 Q1011 NOSIG
Loading
Personal Weather Stations






























Interactive Weather Map
Tropical Storm Tracking
New forecast layout! Learn more

10-Day Weather Forecast

Advertisements
Track Severe Weather on mobile